createdAt,value
2022-10-19T00:00:06.786Z,3.15
2022-10-19T00:02:08.434Z,2.78
2022-10-19T00:04:10.085Z,3.15
2022-10-19T00:06:15.018Z,3.63
2022-10-19T00:08:16.540Z,2.67
2022-10-19T00:10:18.271Z,2.92
2022-10-19T00:12:19.793Z,3.35
2022-10-19T00:14:23.930Z,3.05
2022-10-19T00:16:27.290Z,3.10
2022-10-19T00:18:28.962Z,2.70
2022-10-19T00:20:30.467Z,2.75
2022-10-19T00:22:32.320Z,2.78
2022-10-19T00:24:34.160Z,2.67
2022-10-19T00:26:35.938Z,3.03
2022-10-19T00:28:37.947Z,2.42
2022-10-19T00:30:40.901Z,2.67
2022-10-19T00:32:42.629Z,3.35
2022-10-19T00:34:44.187Z,2.70
2022-10-19T00:36:45.676Z,2.92
2022-10-19T00:38:47.297Z,2.70
2022-10-19T00:40:49.347Z,3.25
2022-10-19T00:42:54.592Z,3.08
2022-10-19T00:45:02.210Z,3.38
2022-10-19T00:47:07.297Z,3.60
2022-10-19T00:49:12.853Z,3.83
2022-10-19T00:51:14.683Z,3.50
2022-10-19T00:53:16.788Z,3.92
2022-10-19T00:55:18.687Z,3.95
2022-10-19T00:57:22.711Z,3.38
2022-10-19T00:59:24.990Z,3.80
2022-10-19T01:01:28.723Z,3.65
2022-10-19T01:03:32.425Z,3.53
2022-10-19T01:05:35.062Z,3.55
2022-10-19T01:07:36.819Z,3.10
2022-10-19T01:09:38.601Z,2.80
2022-10-19T01:11:51.275Z,2.47
2022-10-19T01:14:04.521Z,2.45
2022-10-19T01:16:16.411Z,1.92
2022-10-19T01:18:22.103Z,2.92
2022-10-19T01:20:57.032Z,2.35
2022-10-19T01:23:12.966Z,1.77
2022-10-19T01:25:22.770Z,1.95
2022-10-19T01:27:41.062Z,2.20
2022-10-19T01:30:03.186Z,1.92
2022-10-19T01:32:09.735Z,2.17
2022-10-19T01:34:17.691Z,2.17
2022-10-19T01:36:28.882Z,2.38
2022-10-19T01:38:37.668Z,2.95
2022-10-19T01:40:46.339Z,3.00
2022-10-19T01:42:57.644Z,2.70
2022-10-19T01:45:05.864Z,3.33
2022-10-19T01:47:11.206Z,2.67
2022-10-19T01:49:23.843Z,2.70
2022-10-19T01:51:30.889Z,2.90
2022-10-19T01:53:38.274Z,3.50
2022-10-19T01:55:44.397Z,4.10
2022-10-19T01:57:48.744Z,2.97
2022-10-19T01:59:50.984Z,3.25
2022-10-19T02:01:55.437Z,3.42
2022-10-19T02:03:57.897Z,3.60
2022-10-19T02:05:59.926Z,3.15
2022-10-19T02:08:06.347Z,3.03
2022-10-19T02:10:08.653Z,3.42
2022-10-19T02:12:12.113Z,3.10
2022-10-19T02:14:16.901Z,3.55
2022-10-19T02:16:23.721Z,3.35
2022-10-19T02:18:31.267Z,2.92
2022-10-19T02:20:35.477Z,3.33
2022-10-19T02:22:37.355Z,3.35
2022-10-19T02:24:38.938Z,2.83
2022-10-19T02:26:41.528Z,3.40
2022-10-19T02:28:43.165Z,2.92
2022-10-19T02:30:44.810Z,3.42
2022-10-19T02:32:46.417Z,3.45
2022-10-19T02:34:49.505Z,3.17
2022-10-19T02:36:51.123Z,3.17
2022-10-19T02:38:52.868Z,2.92
2022-10-19T02:41:02.920Z,3.10
2022-10-19T02:43:12.947Z,3.28
2022-10-19T02:45:21.677Z,2.38
2022-10-19T02:47:27.378Z,2.58
2022-10-19T02:49:29.916Z,2.25
2022-10-19T02:51:34.653Z,1.92
2022-10-19T02:53:36.145Z,2.30
2022-10-19T02:55:38.050Z,1.95
2022-10-19T02:57:39.705Z,1.90
2022-10-19T02:59:41.261Z,1.60
2022-10-19T03:01:42.749Z,1.40
2022-10-19T03:03:44.355Z,1.60
2022-10-19T03:05:45.854Z,1.50
2022-10-19T03:07:48.758Z,1.67
2022-10-19T03:09:50.984Z,1.70
2022-10-19T03:11:52.580Z,1.35
2022-10-19T03:13:54.098Z,1.48
2022-10-19T03:15:55.619Z,1.80
2022-10-19T03:17:57.276Z,1.50
2022-10-19T03:19:58.824Z,1.40
2022-10-19T03:22:00.348Z,1.55
2022-10-19T03:24:06.227Z,1.52
2022-10-19T03:26:11.505Z,1.30
2022-10-19T03:28:13.887Z,1.30
2022-10-19T03:30:15.625Z,1.17
2022-10-19T03:32:17.107Z,1.83
2022-10-19T03:34:18.900Z,1.17
2022-10-19T03:36:22.417Z,1.42
2022-10-19T03:38:23.911Z,1.58
2022-10-19T03:40:26.774Z,1.50
2022-10-19T03:42:28.292Z,1.20
2022-10-19T03:44:29.791Z,1.30
2022-10-19T03:46:32.164Z,1.40
2022-10-19T03:48:33.857Z,1.60
2022-10-19T03:50:35.350Z,1.90
2022-10-19T03:52:36.896Z,1.40
2022-10-19T03:54:38.596Z,1.33
2022-10-19T03:56:42.458Z,1.30
2022-10-19T03:58:46.317Z,1.10
2022-10-19T04:00:47.815Z,1.63
2022-10-19T04:02:49.388Z,1.13
2022-10-19T04:04:50.932Z,1.40
2022-10-19T04:06:52.467Z,1.40
2022-10-19T04:08:54.645Z,1.30
2022-10-19T04:10:59.576Z,1.20
2022-10-19T04:13:02.456Z,1.30
2022-10-19T04:15:04.468Z,1.25
2022-10-19T04:17:06.497Z,1.13
2022-10-19T04:19:08.577Z,1.20
2022-10-19T04:21:21.533Z,1.20
2022-10-19T04:23:23.680Z,1.27
2022-10-19T04:25:25.159Z,1.88
2022-10-19T04:27:26.998Z,3.88
2022-10-19T04:29:30.910Z,2.30
2022-10-19T04:31:32.434Z,3.72
2022-10-19T04:33:34.901Z,1.20
2022-10-19T04:35:36.450Z,1.40
2022-10-19T04:37:37.941Z,1.52
2022-10-19T04:39:39.663Z,11.73
2022-10-19T04:41:41.210Z,2.55
2022-10-19T04:43:43.018Z,1.70
2022-10-19T04:45:45.870Z,1.17
2022-10-19T04:47:47.344Z,4.03
2022-10-19T04:49:48.811Z,1.20
2022-10-19T04:51:50.338Z,1.08
2022-10-19T04:53:53.410Z,2.50
2022-10-19T04:55:57.258Z,0.90
2022-10-19T04:57:58.731Z,1.40
2022-10-19T05:00:00.282Z,1.30
2022-10-19T05:02:03.234Z,2.33
2022-10-19T05:04:04.747Z,1.55
2022-10-19T05:06:07.044Z,1.25
2022-10-19T05:08:09.594Z,3.45
2022-10-19T05:10:13.667Z,1.80
2022-10-19T05:12:15.335Z,0.77
2022-10-19T05:14:16.977Z,2.08
2022-10-19T05:16:20.604Z,0.93
2022-10-19T05:18:23.545Z,2.58
2022-10-19T05:20:25.202Z,1.17
2022-10-19T05:22:26.699Z,2.00
2022-10-19T05:24:28.295Z,1.58
2022-10-19T05:26:29.816Z,1.63
2022-10-19T05:28:32.249Z,2.20
2022-10-19T05:30:33.805Z,1.20
2022-10-19T05:32:35.572Z,1.00
2022-10-19T05:34:38.378Z,1.70
2022-10-19T05:36:40.356Z,1.95
2022-10-19T05:38:42.419Z,0.90
2022-10-19T05:40:51.535Z,1.65
2022-10-19T05:42:55.265Z,2.50
2022-10-19T05:44:56.790Z,5.25
2022-10-19T05:46:58.280Z,0.90
2022-10-19T05:49:00.419Z,3.30
2022-10-19T05:51:04.490Z,1.52
2022-10-19T05:53:05.967Z,1.15
2022-10-19T05:55:08.553Z,8.80
2022-10-19T05:57:10.168Z,1.00
2022-10-19T05:59:19.094Z,10.27
2022-10-19T06:01:20.630Z,13.77
2022-10-19T06:03:22.717Z,12.43
2022-10-19T06:05:24.254Z,7.97
2022-10-19T06:07:27.194Z,3.55
2022-10-19T06:09:28.684Z,3.30
2022-10-19T06:11:32.322Z,6.50
2022-10-19T06:13:34.145Z,1.92
2022-10-19T06:15:35.744Z,1.20
2022-10-19T06:17:37.267Z,3.65
2022-10-19T06:19:38.825Z,3.58
2022-10-19T06:21:43.280Z,1.10
2022-10-19T06:23:51.575Z,1.00
2022-10-19T06:25:53.141Z,1.00
2022-10-19T06:27:54.774Z,1.20
2022-10-19T06:29:56.240Z,1.00
2022-10-19T06:31:57.813Z,1.38
2022-10-19T06:33:59.561Z,0.80
2022-10-19T06:36:05.647Z,1.30
2022-10-19T06:38:07.128Z,0.90
2022-10-19T06:40:11.382Z,1.30
2022-10-19T06:42:12.888Z,1.05
2022-10-19T06:44:14.416Z,1.25
2022-10-19T06:46:16.961Z,1.10
2022-10-19T06:48:18.545Z,0.98
2022-10-19T06:50:20.106Z,1.08
2022-10-19T06:52:21.656Z,1.20
2022-10-19T06:54:23.153Z,1.08
2022-10-19T06:56:26.636Z,1.30
2022-10-19T06:58:28.708Z,1.33
2022-10-19T07:00:31.053Z,1.33
2022-10-19T07:02:33.403Z,1.50
2022-10-19T07:04:34.863Z,1.58
2022-10-19T07:06:36.402Z,2.40
2022-10-19T07:08:39.514Z,1.20
2022-10-19T07:10:41.038Z,1.10
2022-10-19T07:14:45.358Z,1.23
2022-10-19T07:16:49.311Z,1.10
2022-10-19T07:18:52.672Z,2.20
2022-10-19T07:20:55.816Z,1.35
2022-10-19T07:22:57.294Z,1.10
2022-10-19T07:24:58.800Z,1.30
2022-10-19T07:27:00.455Z,1.17
2022-10-19T07:29:04.237Z,0.90
2022-10-19T07:31:07.279Z,0.90
2022-10-19T07:33:08.851Z,0.90
2022-10-19T07:35:10.381Z,1.08
2022-10-19T07:37:11.854Z,0.98
2022-10-19T07:39:14.183Z,0.90
2022-10-19T07:41:17.813Z,0.90
2022-10-19T07:43:19.279Z,1.02
2022-10-19T07:45:22.104Z,0.90
2022-10-19T07:47:23.590Z,0.90
2022-10-19T07:49:25.245Z,0.95
2022-10-19T07:51:26.776Z,1.08
2022-10-19T07:53:28.634Z,1.38
2022-10-19T07:55:30.115Z,1.08
2022-10-19T07:57:31.634Z,1.15
2022-10-19T07:59:34.166Z,1.23
2022-10-19T08:01:40.090Z,0.88
2022-10-19T08:04:48.579Z,1.50
2022-10-19T08:06:05.400Z,1.05
2022-10-19T08:08:06.971Z,0.88
2022-10-19T08:10:09.318Z,0.77
2022-10-19T08:12:14.883Z,0.80
2022-10-19T08:14:17.218Z,0.85
2022-10-19T08:16:23.209Z,1.10
2022-10-19T08:18:26.086Z,1.00
2022-10-19T08:20:27.615Z,0.85
2022-10-19T08:22:29.085Z,1.70
2022-10-19T08:24:30.836Z,0.90
2022-10-19T08:26:35.003Z,1.00
2022-10-19T08:28:36.570Z,0.90
2022-10-19T08:30:38.013Z,0.90
2022-10-19T08:32:39.643Z,0.93
2022-10-19T08:34:42.758Z,1.10
2022-10-19T08:36:44.496Z,1.50
2022-10-19T08:38:46.286Z,1.52
2022-10-19T08:40:47.867Z,1.10
2022-10-19T08:42:57.961Z,1.20
2022-10-19T08:45:25.707Z,1.00
2022-10-19T08:47:46.957Z,0.82
2022-10-19T08:49:50.057Z,0.90
2022-10-19T08:51:56.028Z,0.90
2022-10-19T08:54:00.361Z,0.90
2022-10-19T08:56:26.997Z,0.95
2022-10-19T08:58:45.575Z,1.10
2022-10-19T09:00:53.235Z,1.08
2022-10-19T09:05:13.549Z,0.90
2022-10-19T09:07:25.554Z,1.25
2022-10-19T09:09:29.901Z,0.85
2022-10-19T09:11:35.345Z,1.00
2022-10-19T09:14:00.513Z,0.98
2022-10-19T09:16:04.041Z,1.15
2022-10-19T09:18:10.509Z,1.20
2022-10-19T09:20:19.552Z,1.00
2022-10-19T09:22:27.492Z,1.48
2022-10-19T09:24:36.756Z,1.13
2022-10-19T09:26:46.963Z,0.80
2022-10-19T09:28:53.894Z,0.93
2022-10-19T09:30:58.312Z,1.00
2022-10-19T09:33:01.042Z,1.40
2022-10-19T09:35:06.224Z,1.13
2022-10-19T09:37:17.822Z,1.30
2022-10-19T09:39:27.068Z,1.20
2022-10-19T09:41:31.252Z,1.15
2022-10-19T09:43:33.246Z,1.00
2022-10-19T09:45:40.151Z,1.20
2022-10-19T09:47:45.748Z,1.10
2022-10-19T09:49:49.035Z,1.00
2022-10-19T09:51:52.747Z,0.85
2022-10-19T09:53:56.034Z,1.10
2022-10-19T09:56:00.078Z,1.25
2022-10-19T09:58:05.312Z,1.05
2022-10-19T10:00:07.406Z,1.20
2022-10-19T10:02:16.101Z,1.00
2022-10-19T10:04:18.373Z,1.92
2022-10-19T10:06:22.206Z,0.90
2022-10-19T10:08:26.546Z,1.10
2022-10-19T10:10:31.362Z,1.10
2022-10-19T10:12:35.111Z,0.90
2022-10-19T10:14:37.177Z,1.00
2022-10-19T10:18:56.615Z,0.95
2022-10-19T10:21:01.853Z,1.13
2022-10-19T10:23:05.992Z,1.20
2022-10-19T10:25:13.605Z,1.00
2022-10-19T10:27:29.517Z,1.00
2022-10-19T10:29:32.968Z,1.00
2022-10-19T10:31:35.297Z,0.98
2022-10-19T10:33:45.027Z,1.00
2022-10-19T10:35:49.339Z,0.90
2022-10-19T10:37:51.719Z,1.58
2022-10-19T10:39:56.617Z,0.93
2022-10-19T10:42:09.767Z,0.80
2022-10-19T10:44:19.459Z,1.00
2022-10-19T10:46:24.425Z,0.95
2022-10-19T10:48:30.237Z,0.90
2022-10-19T10:50:35.817Z,1.35
2022-10-19T10:52:38.082Z,0.90
2022-10-19T10:54:40.390Z,0.98
2022-10-19T10:56:43.319Z,1.10
2022-10-19T10:58:50.034Z,0.93
2022-10-19T11:00:53.556Z,0.60
2022-10-19T11:03:00.757Z,0.88
2022-10-19T11:05:07.256Z,0.82
2022-10-19T11:07:18.076Z,0.88
2022-10-19T11:09:26.179Z,0.90
2022-10-19T11:11:32.264Z,0.80
2022-10-19T11:13:41.106Z,0.70
2022-10-19T11:15:52.231Z,0.80
2022-10-19T11:18:04.118Z,0.70
2022-10-19T11:20:07.436Z,1.35
2022-10-19T11:22:22.292Z,0.80
2022-10-19T11:24:35.244Z,0.80
2022-10-19T11:26:50.302Z,0.80
2022-10-19T11:29:06.298Z,0.70
2022-10-19T11:31:16.345Z,0.80
2022-10-19T11:33:36.720Z,0.75
2022-10-19T11:38:17.385Z,0.60
2022-10-19T11:40:23.029Z,0.50
2022-10-19T11:42:37.508Z,0.60
2022-10-19T11:44:50.246Z,0.88
2022-10-19T11:47:16.725Z,0.90
2022-10-19T11:49:31.428Z,0.70
2022-10-19T11:51:39.437Z,0.50
2022-10-19T11:53:52.088Z,0.70
2022-10-19T11:56:00.161Z,0.70
2022-10-19T11:58:14.675Z,0.70
2022-10-19T12:00:39.364Z,0.70
2022-10-19T12:03:09.571Z,0.60
2022-10-19T12:05:17.348Z,0.70
2022-10-19T12:07:34.968Z,0.82
2022-10-19T12:09:47.564Z,0.80
2022-10-19T12:12:02.261Z,1.00
2022-10-19T12:14:08.149Z,0.70
2022-10-19T12:16:13.191Z,0.60
2022-10-19T12:18:29.525Z,0.70
2022-10-19T12:20:37.329Z,0.70
2022-10-19T12:22:40.127Z,0.70
2022-10-19T12:24:41.774Z,0.60
2022-10-19T12:26:44.929Z,0.80
2022-10-19T12:28:49.882Z,0.70
2022-10-19T12:30:53.149Z,0.60
2022-10-19T12:33:16.388Z,0.70
2022-10-19T12:35:28.444Z,0.60
2022-10-19T12:37:38.031Z,0.40
2022-10-19T12:39:45.743Z,0.63
2022-10-19T12:44:11.972Z,0.80
2022-10-19T12:46:21.936Z,0.70
2022-10-19T12:48:23.856Z,0.60
2022-10-19T12:51:12.188Z,0.90
2022-10-19T12:53:23.463Z,0.60
2022-10-19T12:55:28.521Z,0.80
2022-10-19T12:57:30.447Z,0.75
2022-10-19T12:59:34.038Z,0.70
2022-10-19T13:01:44.059Z,1.00
2022-10-19T13:03:45.765Z,0.70
2022-10-19T13:05:56.617Z,0.75
2022-10-19T13:08:01.313Z,0.70
2022-10-19T13:10:07.150Z,0.80
2022-10-19T13:12:29.525Z,0.95
2022-10-19T13:14:44.809Z,0.60
2022-10-19T13:17:01.698Z,0.70
2022-10-19T13:19:17.443Z,0.50
2022-10-19T13:21:43.199Z,0.88
2022-10-19T13:23:45.252Z,0.70
2022-10-19T13:26:24.540Z,0.70
2022-10-19T13:28:37.376Z,0.65
2022-10-19T13:31:09.341Z,0.80
2022-10-19T13:33:47.939Z,0.70
2022-10-19T13:35:49.568Z,0.70
2022-10-19T13:38:20.350Z,0.70
2022-10-19T13:40:24.660Z,0.70
2022-10-19T13:42:28.163Z,0.85
2022-10-19T13:44:33.399Z,0.70
2022-10-19T13:46:47.637Z,0.70
2022-10-19T13:49:32.653Z,0.68
2022-10-19T13:51:45.055Z,0.70
2022-10-19T13:53:54.080Z,0.82
2022-10-19T13:56:16.872Z,0.77
2022-10-19T13:58:40.311Z,0.90
2022-10-19T14:00:59.200Z,0.75
2022-10-19T14:03:11.766Z,0.63
2022-10-19T14:05:44.838Z,0.80
2022-10-19T14:07:57.648Z,0.50
2022-10-19T14:10:07.823Z,0.70
2022-10-19T14:12:18.992Z,0.65
2022-10-19T14:14:23.739Z,0.68
2022-10-19T14:16:25.301Z,0.68
2022-10-19T14:18:29.454Z,2.65
2022-10-19T14:20:33.890Z,12.35
2022-10-19T14:22:36.398Z,2.13
2022-10-19T14:24:37.858Z,1.48
2022-10-19T14:26:39.429Z,2.30
2022-10-19T14:28:42.078Z,2.50
2022-10-19T14:30:53.824Z,1.48
2022-10-19T14:32:59.408Z,5.50
2022-10-19T14:35:15.770Z,1.40
2022-10-19T14:37:19.741Z,1.30
2022-10-19T14:39:29.215Z,0.80
2022-10-19T14:41:32.424Z,0.93
2022-10-19T14:43:34.924Z,0.80
2022-10-19T14:45:36.469Z,4.45
2022-10-19T14:47:50.961Z,7.90
2022-10-19T14:49:52.682Z,3.42
2022-10-19T14:51:58.617Z,1.65
2022-10-19T14:54:05.795Z,1.00
2022-10-19T14:56:14.241Z,3.60
2022-10-19T14:58:19.110Z,0.80
2022-10-19T15:00:23.117Z,0.85
2022-10-19T15:02:28.865Z,0.80
2022-10-19T15:04:34.614Z,0.82
2022-10-19T15:06:37.882Z,1.17
2022-10-19T15:08:42.281Z,1.00
2022-10-19T15:10:46.925Z,1.00
2022-10-19T15:12:49.551Z,0.80
2022-10-19T15:14:51.123Z,0.95
2022-10-19T15:16:54.159Z,0.80
2022-10-19T15:18:55.997Z,1.67
2022-10-19T15:21:12.301Z,0.80
2022-10-19T15:23:37.142Z,0.90
2022-10-19T15:25:38.707Z,1.15
2022-10-19T15:27:42.254Z,2.05
2022-10-19T15:29:55.033Z,2.15
2022-10-19T15:32:12.043Z,2.35
2022-10-19T15:34:24.466Z,1.20
2022-10-19T15:36:28.673Z,0.80
2022-10-19T15:38:33.047Z,1.60
2022-10-19T15:40:37.788Z,3.10
2022-10-19T15:42:41.155Z,1.20
2022-10-19T15:44:44.014Z,1.50
2022-10-19T15:47:15.150Z,1.65
2022-10-19T15:49:51.502Z,2.72
2022-10-19T15:51:54.397Z,1.90
2022-10-19T15:53:58.416Z,0.98
2022-10-19T15:58:09.803Z,1.77
2022-10-19T16:00:13.722Z,1.25
2022-10-19T16:02:15.415Z,1.35
2022-10-19T16:04:17.198Z,1.13
2022-10-19T16:06:20.032Z,2.40
2022-10-19T16:08:22.911Z,1.35
2022-10-19T16:10:26.484Z,3.00
2022-10-19T16:12:28.023Z,2.67
2022-10-19T16:14:31.940Z,1.00
2022-10-19T16:16:37.403Z,1.80
2022-10-19T16:18:38.892Z,1.50
2022-10-19T16:20:40.438Z,1.30
2022-10-19T16:22:42.225Z,2.72
2022-10-19T16:24:45.074Z,1.20
2022-10-19T16:26:46.681Z,1.50
2022-10-19T16:28:48.759Z,1.90
2022-10-19T16:30:52.404Z,1.30
2022-10-19T16:32:54.301Z,1.88
2022-10-19T16:34:55.801Z,1.83
2022-10-19T16:36:57.549Z,1.85
2022-10-19T16:39:01.849Z,1.55
2022-10-19T16:41:07.397Z,1.92
2022-10-19T16:43:08.947Z,1.90
2022-10-19T16:45:11.391Z,1.52
2022-10-19T16:47:12.965Z,1.40
2022-10-19T16:49:14.497Z,2.25
2022-10-19T16:51:23.948Z,1.90
2022-10-19T16:53:25.529Z,1.80
2022-10-19T16:55:28.542Z,1.73
2022-10-19T16:57:31.424Z,1.80
2022-10-19T16:59:32.904Z,1.80
2022-10-19T17:01:34.991Z,1.83
2022-10-19T17:03:36.744Z,1.90
2022-10-19T17:05:38.350Z,1.70
2022-10-19T17:07:39.836Z,1.90
2022-10-19T17:09:42.638Z,4.15
2022-10-19T17:11:44.698Z,4.07
2022-10-19T17:13:49.880Z,3.33
2022-10-19T17:15:53.873Z,2.83
2022-10-19T17:17:55.479Z,2.70
2022-10-19T17:19:57.017Z,3.42
2022-10-19T17:21:58.600Z,2.10
2022-10-19T17:24:02.315Z,2.30
2022-10-19T17:26:04.815Z,2.63
2022-10-19T17:28:06.454Z,3.30
2022-10-19T17:30:12.042Z,2.70
2022-10-19T17:32:13.579Z,2.63
2022-10-19T17:34:15.585Z,2.17
2022-10-19T17:36:19.682Z,2.55
2022-10-19T17:38:21.238Z,3.08
2022-10-19T17:40:22.739Z,2.63
2022-10-19T17:42:24.267Z,2.60
2022-10-19T17:44:25.751Z,3.20
2022-10-19T17:46:31.068Z,2.88
2022-10-19T17:48:32.713Z,3.13
2022-10-19T17:50:34.200Z,4.40
2022-10-19T17:52:35.957Z,3.92
2022-10-19T17:54:48.561Z,4.03
2022-10-19T17:56:59.380Z,3.65
2022-10-19T17:59:01.045Z,4.07
2022-10-19T18:01:06.247Z,5.47
2022-10-19T18:03:09.179Z,4.13
2022-10-19T18:05:10.935Z,6.32
2022-10-19T18:07:12.395Z,3.72
2022-10-19T18:09:13.945Z,4.82
2022-10-19T18:11:17.767Z,4.10
2022-10-19T18:13:19.240Z,22.60
2022-10-19T18:15:20.711Z,13.98
2022-10-19T18:17:25.449Z,10.32
2022-10-19T18:19:30.643Z,22.27
2022-10-19T18:21:34.545Z,3.20
2022-10-19T18:23:36.390Z,2.55
2022-10-19T18:25:53.518Z,2.78
2022-10-19T18:27:55.928Z,3.63
2022-10-19T18:29:57.580Z,2.42
2022-10-19T18:31:59.116Z,2.38
2022-10-19T18:34:02.543Z,2.42
2022-10-19T18:36:07.442Z,2.58
2022-10-19T18:38:09.094Z,3.00
2022-10-19T18:40:11.154Z,2.45
2022-10-19T18:42:12.706Z,2.65
2022-10-19T18:44:14.213Z,5.03
2022-10-19T18:46:18.041Z,5.53
2022-10-19T18:48:19.828Z,4.13
2022-10-19T18:50:21.342Z,5.07
2022-10-19T18:52:24.137Z,3.83
2022-10-19T18:54:26.230Z,3.58
2022-10-19T18:56:28.026Z,3.40
2022-10-19T18:58:29.841Z,5.65
2022-10-19T19:00:31.493Z,4.22
2022-10-19T19:02:46.396Z,5.13
2022-10-19T19:04:48.666Z,4.60
2022-10-19T19:06:50.341Z,4.18
2022-10-19T19:08:55.768Z,3.97
2022-10-19T19:10:57.678Z,4.60
2022-10-19T19:12:59.213Z,4.18
2022-10-19T19:15:00.833Z,4.60
2022-10-19T19:17:02.303Z,8.70
2022-10-19T19:19:04.915Z,20.55
2022-10-19T19:21:15.038Z,12.18
2022-10-19T19:23:16.707Z,8.10
2022-10-19T19:25:19.766Z,6.80
2022-10-19T19:27:21.663Z,4.22
2022-10-19T19:29:23.269Z,7.30
2022-10-19T19:31:25.124Z,3.85
2022-10-19T19:33:26.629Z,8.00
2022-10-19T19:35:28.117Z,3.88
2022-10-19T19:37:29.979Z,3.33
2022-10-19T19:39:31.527Z,3.80
2022-10-19T19:41:34.337Z,3.80
2022-10-19T19:43:37.737Z,3.92
2022-10-19T19:45:39.903Z,3.60
2022-10-19T19:47:41.440Z,3.80
2022-10-19T19:49:43.085Z,3.90
2022-10-19T19:51:44.641Z,3.80
2022-10-19T19:53:47.455Z,4.07
2022-10-19T19:55:49.683Z,4.15
2022-10-19T19:57:52.632Z,3.85
2022-10-19T19:59:54.115Z,4.78
2022-10-19T20:03:58.893Z,4.88
2022-10-19T20:06:01.345Z,5.03
2022-10-19T20:08:03.066Z,5.45
2022-10-19T20:10:04.970Z,4.55
2022-10-19T20:12:06.407Z,5.07
2022-10-19T20:16:13.085Z,4.60
2022-10-19T20:18:14.588Z,4.70
2022-10-19T20:22:18.398Z,4.22
2022-10-19T20:26:23.719Z,5.00
2022-10-19T20:28:26.403Z,4.28
2022-10-19T20:30:29.233Z,4.88
2022-10-19T20:32:30.905Z,4.30
2022-10-19T20:34:34.417Z,9.02
2022-10-19T20:36:35.922Z,5.15
2022-10-19T20:38:38.919Z,4.70
2022-10-19T20:40:40.394Z,5.88
2022-10-19T20:44:44.327Z,4.45
2022-10-19T20:46:50.501Z,4.70
2022-10-19T20:48:52.893Z,5.13
2022-10-19T20:50:54.622Z,5.53
2022-10-19T20:52:56.077Z,6.00
2022-10-19T20:56:59.388Z,4.60
2022-10-19T20:59:05.340Z,5.95
2022-10-19T21:01:08.513Z,4.40
2022-10-19T21:03:11.420Z,5.25
2022-10-19T21:05:14.390Z,4.90
2022-10-19T21:07:15.828Z,4.60
2022-10-19T21:11:21.587Z,5.25
2022-10-19T21:13:23.051Z,5.32
2022-10-19T21:17:26.931Z,4.80
2022-10-19T21:19:30.351Z,4.43
2022-10-19T21:21:33.361Z,4.60
2022-10-19T21:23:34.912Z,4.80
2022-10-19T21:25:36.386Z,5.10
2022-10-19T21:29:39.866Z,4.57
2022-10-19T21:31:45.144Z,4.18
2022-10-19T21:33:49.798Z,5.13
2022-10-19T21:35:52.589Z,4.72
2022-10-19T21:37:54.021Z,4.35
2022-10-19T21:41:56.967Z,3.78
2022-10-19T21:46:01.652Z,3.92
2022-10-19T21:48:03.101Z,3.53
2022-10-19T21:52:08.501Z,3.17
2022-10-19T21:54:13.624Z,3.58
2022-10-19T21:56:15.883Z,3.00
2022-10-19T21:58:17.756Z,2.75
2022-10-19T22:00:19.305Z,2.85
2022-10-19T22:04:22.601Z,2.80
2022-10-19T22:06:24.634Z,2.63
2022-10-19T22:08:27.844Z,2.40
2022-10-19T22:10:29.789Z,2.30
2022-10-19T22:12:31.289Z,2.15
2022-10-19T22:16:34.609Z,2.15
2022-10-19T22:18:36.426Z,2.08
2022-10-19T22:20:39.214Z,2.35
2022-10-19T22:22:40.754Z,2.45
2022-10-19T22:26:46.965Z,2.20
2022-10-19T22:28:51.033Z,2.22
2022-10-19T22:30:53.362Z,2.00
2022-10-19T22:32:54.850Z,2.17
2022-10-19T22:36:57.874Z,2.22
2022-10-19T22:38:59.407Z,2.00
2022-10-19T22:43:06.704Z,2.10
2022-10-19T22:45:08.859Z,1.88
2022-10-19T22:47:10.342Z,1.83
2022-10-19T22:51:13.310Z,1.90
2022-10-19T22:55:16.393Z,1.73
2022-10-19T22:59:20.630Z,1.80
2022-10-19T23:03:23.673Z,1.70
2022-10-19T23:05:25.208Z,1.80
2022-10-19T23:09:27.975Z,1.58
2022-10-19T23:13:32.591Z,1.80
2022-10-19T23:15:34.056Z,2.03
2022-10-19T23:19:37.317Z,1.60
2022-10-19T23:23:40.857Z,1.80
2022-10-19T23:25:42.351Z,1.85
2022-10-19T23:29:46.514Z,1.90
2022-10-19T23:31:48.008Z,1.73
2022-10-19T23:35:51.004Z,1.70
2022-10-19T23:37:52.490Z,1.80
2022-10-19T23:41:55.353Z,1.80
2022-10-19T23:45:59.668Z,1.90
2022-10-19T23:48:01.161Z,1.90
2022-10-19T23:52:04.223Z,1.90
2022-10-19T23:54:05.937Z,1.80
2022-10-19T23:56:09.669Z,2.20
2022-10-19T23:58:11.281Z,2.35
